Time;durP1;ratioP1;P1;durP2;ratioP2;P2;SDS_P1;SDS_P2;PMS_P1;PMS_P2;Temp;Humidity;BMP_temperature;BMP_pressure;BME280_temperature;BME280_humidity;BME280_pressure;Samples;Min_cycle;Max_cycle;Signal;HPM_P1;HPM_P2
2021/08/02 00:00:09;;;;;;;3.88;1.77;;;14.70;99.90;;;;;;6220305;23;20012;-78
2021/08/02 00:02:38;;;;;;;6.93;2.00;;;14.70;99.90;;;;;;6194108;23;20035;-79
2021/08/02 00:05:07;;;;;;;4.75;1.83;;;14.70;99.90;;;;;;6183849;23;20016;-78
2021/08/02 00:07:38;;;;;;;7.15;2.13;;;14.70;99.90;;;;;;6183753;23;20075;-77
2021/08/02 00:10:15;;;;;;;7.30;1.90;;;14.70;99.90;;;;;;6220785;23;20020;-77
2021/08/02 00:12:52;;;;;;;4.97;1.85;;;14.70;99.90;;;;;;6181599;23;20096;-77
2021/08/02 00:15:20;;;;;;;8.52;2.10;;;14.70;99.90;;;;;;6180732;23;20024;-77
2021/08/02 00:17:47;;;;;;;8.90;1.88;;;14.70;99.90;;;;;;6156420;23;20025;-77
2021/08/02 00:20:16;;;;;;;10.18;2.30;;;14.70;99.90;;;;;;6181245;23;20013;-77
2021/08/02 00:22:43;;;;;;;5.70;2.40;;;14.70;99.90;;;;;;6191293;23;20017;-77
2021/08/02 00:25:10;;;;;;;4.97;1.85;;;14.70;99.90;;;;;;6179453;23;20420;-77
2021/08/02 00:27:37;;;;;;;6.95;1.92;;;14.70;99.90;;;;;;6180455;23;20037;-77
2021/08/02 00:30:05;;;;;;;5.35;2.00;;;14.60;99.90;;;;;;6192840;23;20112;-77
2021/08/02 00:32:32;;;;;;;10.10;2.03;;;14.60;99.90;;;;;;6193888;23;20065;-77
2021/08/02 00:34:59;;;;;;;10.93;2.38;;;14.60;99.90;;;;;;6192230;23;20100;-77
2021/08/02 00:37:35;;;;;;;11.38;2.28;;;14.60;99.90;;;;;;6193101;23;20017;-77
2021/08/02 00:40:21;;;;;;;11.50;2.20;;;14.60;99.90;;;;;;6192621;23;20791;-77
2021/08/02 00:42:49;;;;;;;12.85;2.05;;;14.60;99.90;;;;;;6185725;23;20013;-77
2021/08/02 00:45:20;;;;;;;8.40;2.05;;;14.60;99.90;;;;;;6179699;23;20021;-78
2021/08/02 00:47:54;;;;;;;7.95;2.30;;;14.60;99.90;;;;;;6183708;23;20015;-77
2021/08/02 00:50:23;;;;;;;4.70;2.00;;;14.60;99.90;;;;;;6193571;23;20105;-78
2021/08/02 00:52:56;;;;;;;12.32;2.20;;;14.60;99.90;;;;;;6192670;23;20080;-78
2021/08/02 00:55:22;;;;;;;12.80;2.40;;;14.60;99.90;;;;;;6191318;23;20444;-77
2021/08/02 00:57:51;;;;;;;8.10;2.35;;;14.60;99.90;;;;;;6185400;23;20017;-77
2021/08/02 01:00:18;;;;;;;8.70;2.60;;;14.60;99.90;;;;;;6192602;23;20013;-77
2021/08/02 01:02:49;;;;;;;6.80;2.40;;;14.50;99.90;;;;;;6180869;23;20071;-77
2021/08/02 01:05:15;;;;;;;11.13;2.67;;;14.60;99.90;;;;;;6193270;23;20032;-77
2021/08/02 01:07:46;;;;;;;11.15;2.35;;;14.50;99.90;;;;;;6183220;23;20013;-77
2021/08/02 01:10:13;;;;;;;4.90;2.28;;;14.50;99.90;;;;;;6192888;23;20338;-77
2021/08/02 01:12:43;;;;;;;8.02;2.78;;;14.50;99.90;;;;;;6184068;23;20044;-77
2021/08/02 01:15:10;;;;;;;10.02;2.55;;;14.50;99.90;;;;;;6192482;23;20025;-77
2021/08/02 01:17:36;;;;;;;9.45;2.60;;;14.50;99.90;;;;;;6191390;23;20067;-77
2021/08/02 01:20:03;;;;;;;7.70;2.20;;;14.50;99.90;;;;;;6191570;23;20020;-77
2021/08/02 01:22:30;;;;;;;7.28;2.35;;;14.50;99.90;;;;;;6182419;23;20027;-77
2021/08/02 01:24:55;;;;;;;9.27;2.58;;;14.40;99.90;;;;;;6191766;23;20020;-77
2021/08/02 01:27:43;;;;;;;7.80;2.72;;;14.50;99.90;;;;;;6186126;23;20009;-77
2021/08/02 01:30:14;;;;;;;10.30;2.35;;;14.40;99.90;;;;;;6192592;23;20020;-77
2021/08/02 01:32:40;;;;;;;8.18;2.47;;;14.50;99.90;;;;;;6192365;23;20020;-77
2021/08/02 01:35:06;;;;;;;6.28;2.28;;;14.50;99.90;;;;;;6192777;23;20012;-77
2021/08/02 01:37:32;;;;;;;13.00;2.53;;;14.50;99.90;;;;;;6180583;23;20017;-77
2021/08/02 01:39:58;;;;;;;4.90;2.35;;;14.40;99.90;;;;;;6179615;23;20388;-77
2021/08/02 01:42:23;;;;;;;8.10;2.15;;;14.50;99.90;;;;;;6188312;23;20048;-77
2021/08/02 01:44:49;;;;;;;10.32;2.60;;;14.50;99.90;;;;;;6190872;23;20016;-77
2021/08/02 01:47:47;;;;;;;6.45;2.28;;;14.50;99.90;;;;;;6192125;23;20685;-77
2021/08/02 01:50:23;;;;;;;11.80;2.60;;;14.60;99.90;;;;;;6178349;23;20017;-77
2021/08/02 01:53:24;;;;;;;10.32;2.20;;;14.60;99.90;;;;;;6181693;23;20009;-77
2021/08/02 01:56:18;;;;;;;9.50;2.63;;;14.50;99.90;;;;;;6181503;23;20074;-77
2021/08/02 01:59:06;;;;;;;8.43;2.33;;;14.60;99.90;;;;;;6147547;23;20020;-77
2021/08/02 02:01:34;;;;;;;15.90;2.80;;;14.60;99.90;;;;;;6192028;23;20063;-77
2021/08/02 02:04:04;;;;;;;16.80;2.80;;;14.50;99.90;;;;;;6180425;23;20151;-77
2021/08/02 02:06:35;;;;;;;14.80;2.63;;;14.60;99.90;;;;;;6178911;23;20036;-77
2021/08/02 02:09:08;;;;;;;4.70;2.33;;;14.60;99.90;;;;;;6178852;23;20401;-77
2021/08/02 02:11:37;;;;;;;9.98;2.88;;;14.50;99.90;;;;;;6179590;23;20029;-77
2021/08/02 02:14:06;;;;;;;11.70;2.58;;;14.50;99.90;;;;;;6191139;23;20013;-77
2021/08/02 02:16:34;;;;;;;9.20;2.60;;;14.50;99.90;;;;;;6190585;23;20009;-77
2021/08/02 02:19:03;;;;;;;8.65;2.40;;;14.50;99.90;;;;;;6180560;23;20044;-77
2021/08/02 02:21:31;;;;;;;8.68;2.53;;;14.50;99.90;;;;;;6188744;23;20017;-77
2021/08/02 02:23:58;;;;;;;7.97;2.28;;;14.50;99.90;;;;;;6178386;23;20353;-77
2021/08/02 02:26:27;;;;;;;4.45;2.00;;;14.50;99.90;;;;;;6179034;23;20017;-76
2021/08/02 02:28:56;;;;;;;6.57;2.30;;;14.50;99.90;;;;;;6190922;23;20131;-76
2021/08/02 02:31:24;;;;;;;8.65;2.50;;;14.50;99.90;;;;;;6189941;23;20096;-77
2021/08/02 02:33:53;;;;;;;11.60;2.53;;;14.50;99.90;;;;;;6179978;23;20016;-77
2021/08/02 02:36:20;;;;;;;10.98;2.53;;;14.50;99.90;;;;;;6181599;23;20097;-77
2021/08/02 02:38:46;;;;;;;10.80;2.33;;;14.40;99.90;;;;;;6189543;23;20115;-77
2021/08/02 02:41:12;;;;;;;8.43;2.10;;;14.50;99.90;;;;;;6180948;23;20020;-77
2021/08/02 02:43:39;;;;;;;8.48;2.70;;;14.40;99.90;;;;;;6181240;23;20340;-77
2021/08/02 02:46:05;;;;;;;8.52;2.13;;;14.40;99.90;;;;;;6180218;23;20448;-78
2021/08/02 02:48:32;;;;;;;7.60;2.30;;;14.40;99.90;;;;;;6180743;23;20129;-77
2021/08/02 02:50:58;;;;;;;8.63;2.30;;;14.40;99.90;;;;;;6192301;23;20028;-77
2021/08/02 02:53:25;;;;;;;9.57;2.00;;;14.40;99.90;;;;;;6189040;23;20012;-77
2021/08/02 02:55:52;;;;;;;7.28;1.77;;;14.40;99.90;;;;;;6191590;23;20032;-77
2021/08/02 02:58:18;;;;;;;6.07;1.50;;;14.30;99.90;;;;;;6180731;23;20021;-77
2021/08/02 03:00:47;;;;;;;8.80;2.05;;;14.30;99.90;;;;;;6191419;23;20078;-77
2021/08/02 03:03:18;;;;;;;4.85;1.67;;;14.30;99.90;;;;;;6180772;23;20013;-77
2021/08/02 03:05:44;;;;;;;5.20;1.52;;;14.40;99.90;;;;;;6190954;23;20013;-77
2021/08/02 03:08:12;;;;;;;3.03;1.50;;;14.50;99.90;;;;;;6181753;23;20013;-77
2021/08/02 03:10:39;;;;;;;5.97;1.73;;;14.50;99.90;;;;;;6180960;23;20091;-77
2021/08/02 03:13:05;;;;;;;5.40;1.90;;;14.50;99.90;;;;;;6180667;23;20453;-77
2021/08/02 03:15:32;;;;;;;4.78;1.60;;;14.50;99.90;;;;;;6182330;23;20092;-77
2021/08/02 03:17:58;;;;;;;5.13;1.70;;;14.60;99.90;;;;;;6192404;23;20401;-77
2021/08/02 03:20:24;;;;;;;4.53;1.60;;;14.70;99.90;;;;;;6180784;23;20391;-77
2021/08/02 03:23:04;;;;;;;8.43;1.80;;;14.70;99.90;;;;;;6153715;23;20401;-76
2021/08/02 03:25:35;;;;;;;5.85;1.80;;;14.70;99.90;;;;;;6177842;23;20126;-77
2021/08/02 03:28:16;;;;;;;4.60;1.70;;;14.60;99.90;;;;;;6184531;23;20013;-77
2021/08/02 03:30:43;;;;;;;8.52;1.83;;;14.60;99.90;;;;;;6180100;23;20028;-77
2021/08/02 03:33:19;;;;;;;8.13;1.90;;;14.50;99.90;;;;;;6190134;23;20112;-77
2021/08/02 03:35:48;;;;;;;4.50;1.70;;;14.50;99.90;;;;;;6190532;23;20019;-77
2021/08/02 03:38:17;;;;;;;5.43;1.80;;;14.40;99.90;;;;;;6180396;23;20028;-77
2021/08/02 03:40:44;;;;;;;5.47;1.60;;;14.40;99.90;;;;;;6192888;23;20041;-77
2021/08/02 03:43:11;;;;;;;6.07;1.95;;;14.30;99.90;;;;;;6184725;23;20099;-77
2021/08/02 03:45:38;;;;;;;8.52;2.10;;;14.30;99.90;;;;;;6184013;23;20016;-77
2021/08/02 03:48:05;;;;;;;8.38;2.50;;;14.30;99.90;;;;;;6181228;23;20441;-77
2021/08/02 03:50:31;;;;;;;6.88;1.92;;;14.20;99.90;;;;;;6181893;23;20096;-77
2021/08/02 03:52:58;;;;;;;8.38;2.17;;;14.20;99.90;;;;;;6193274;23;20024;-77
2021/08/02 03:55:25;;;;;;;415.27;377.73;;;14.20;99.90;;;;;;6183601;23;20388;-77
2021/08/02 03:57:51;;;;;;;257.50;234.23;;;14.20;99.90;;;;;;6186561;23;20017;-77
2021/08/02 04:00:21;;;;;;;62.88;57.22;;;14.20;99.90;;;;;;6181881;23;20048;-77
2021/08/02 04:02:49;;;;;;;79.40;65.60;;;14.10;99.90;;;;;;6193782;23;20029;-77
2021/08/02 04:05:15;;;;;;;59.63;49.90;;;14.10;99.90;;;;;;6181574;23;20294;-77
2021/08/02 04:07:42;;;;;;;158.90;133.15;;;14.00;99.90;;;;;;6184301;23;20112;-77
2021/08/02 04:10:08;;;;;;;23.88;19.58;;;14.10;99.90;;;;;;6181839;23;20100;-77
2021/08/02 04:12:34;;;;;;;78.53;57.33;;;14.10;99.90;;;;;;6181919;23;20021;-77
2021/08/02 04:15:00;;;;;;;25.27;20.13;;;14.10;99.90;;;;;;6182204;23;20016;-77
2021/08/02 04:17:26;;;;;;;177.30;122.55;;;14.00;99.90;;;;;;6182949;23;20025;-76
2021/08/02 04:19:52;;;;;;;83.63;48.80;;;14.00;99.90;;;;;;6191679;23;20063;-77
2021/08/02 04:22:17;;;;;;;79.95;68.40;;;14.00;99.90;;;;;;6192852;23;20877;-77
2021/08/02 04:24:43;;;;;;;135.02;89.82;;;14.00;99.90;;;;;;6192936;23;20433;-77
2021/08/02 04:27:09;;;;;;;57.78;52.83;;;14.00;99.90;;;;;;6181759;23;20029;-77
2021/08/02 04:29:38;;;;;;;467.20;395.88;;;14.00;99.90;;;;;;6193290;23;20439;-77
2021/08/02 04:32:06;;;;;;;360.17;308.05;;;14.00;99.90;;;;;;6193192;23;20088;-77
2021/08/02 04:34:34;;;;;;;386.48;315.58;;;14.00;99.90;;;;;;6192374;23;20028;-77
2021/08/02 04:37:01;;;;;;;94.65;85.90;;;14.00;99.90;;;;;;6192527;23;20720;-76
2021/08/02 04:39:27;;;;;;;193.10;174.20;;;14.10;99.90;;;;;;6182689;23;20067;-77
2021/08/02 04:41:53;;;;;;;152.48;138.18;;;14.10;99.90;;;;;;6192901;23;20012;-77
2021/08/02 04:44:19;;;;;;;147.00;133.55;;;14.10;99.90;;;;;;6193011;23;20016;-77
2021/08/02 04:46:44;;;;;;;169.80;153.02;;;14.10;99.90;;;;;;6180619;23;20090;-77
2021/08/02 04:49:10;;;;;;;185.23;167.50;;;14.10;99.90;;;;;;6190269;23;20013;-78
2021/08/02 04:51:36;;;;;;;202.95;183.07;;;14.10;99.90;;;;;;6181541;23;20013;-78
2021/08/02 04:54:02;;;;;;;183.00;165.32;;;14.20;99.90;;;;;;6181930;23;20310;-79
2021/08/02 04:56:28;;;;;;;188.10;170.07;;;14.40;99.90;;;;;;6182233;23;20060;-82
2021/08/02 04:58:54;;;;;;;187.55;169.38;;;14.70;99.90;;;;;;6183848;23;20325;-79
2021/08/02 05:01:20;;;;;;;180.98;163.30;;;14.70;99.90;;;;;;6180943;23;20030;-81
2021/08/02 05:03:46;;;;;;;198.13;178.52;;;14.80;99.90;;;;;;6192843;23;20013;-80
2021/08/02 05:06:12;;;;;;;206.95;186.98;;;15.00;99.90;;;;;;6190876;23;20020;-79
2021/08/02 05:08:38;;;;;;;200.93;181.60;;;15.10;99.90;;;;;;6192390;23;20096;-80
2021/08/02 05:11:05;;;;;;;199.38;181.25;;;15.30;99.90;;;;;;6182611;23;20013;-80
2021/08/02 05:13:34;;;;;;;165.45;150.00;;;15.30;99.90;;;;;;6222644;23;20091;-80
2021/08/02 05:16:00;;;;;;;180.25;163.38;;;15.40;99.90;;;;;;6196465;23;20047;-81
2021/08/02 05:18:26;;;;;;;172.98;157.13;;;15.30;99.90;;;;;;6223408;23;20297;-81
2021/08/02 05:20:52;;;;;;;162.82;148.15;;;15.30;99.90;;;;;;6186956;23;20484;-82
2021/08/02 05:23:18;;;;;;;164.32;149.23;;;15.20;99.90;;;;;;6186500;23;20036;-80
2021/08/02 05:25:44;;;;;;;155.55;140.77;;;15.40;99.90;;;;;;6223018;23;20016;-83
2021/08/02 05:28:09;;;;;;;152.65;139.02;;;15.60;99.90;;;;;;6222694;23;20419;-81
2021/08/02 05:30:36;;;;;;;143.18;130.48;;;15.60;99.90;;;;;;6186402;23;20017;-78
2021/08/02 05:33:04;;;;;;;134.80;122.80;;;15.60;99.90;;;;;;6163551;23;20013;-79
2021/08/02 05:35:31;;;;;;;129.02;117.18;;;15.60;99.90;;;;;;6213745;23;20037;-78
2021/08/02 05:37:57;;;;;;;153.35;139.38;;;15.50;99.90;;;;;;6197193;23;20257;-79
2021/08/02 05:40:23;;;;;;;149.85;136.70;;;15.70;99.90;;;;;;6197404;23;20069;-76
2021/08/02 05:42:48;;;;;;;136.90;124.35;;;15.60;99.90;;;;;;6187031;23;20017;-80
2021/08/02 05:45:14;;;;;;;200.20;181.38;;;15.70;99.90;;;;;;6187058;23;20076;-77
2021/08/02 05:47:41;;;;;;;101.30;91.80;;;15.60;99.90;;;;;;6223723;23;20024;-79
2021/08/02 05:50:07;;;;;;;111.68;100.95;;;15.50;99.90;;;;;;6197836;23;20380;-79
2021/08/02 05:52:33;;;;;;;180.68;162.90;;;15.40;99.90;;;;;;6197157;23;20008;-80
2021/08/02 05:54:59;;;;;;;136.98;124.40;;;15.40;99.90;;;;;;6212932;23;20015;-80
2021/08/02 05:57:25;;;;;;;111.80;101.75;;;15.60;99.90;;;;;;6220419;23;20013;-79
2021/08/02 05:59:51;;;;;;;144.07;130.25;;;15.70;99.90;;;;;;6161071;23;20273;-80
2021/08/02 06:02:17;;;;;;;130.27;117.32;;;15.70;99.90;;;;;;6187335;23;20140;-78
2021/08/02 06:04:44;;;;;;;76.72;69.28;;;15.60;99.90;;;;;;6161718;23;20008;-81
2021/08/02 06:07:11;;;;;;;125.80;113.32;;;15.60;99.90;;;;;;6212523;23;20442;-80
2021/08/02 06:09:36;;;;;;;41.88;38.17;;;15.70;99.90;;;;;;6196048;23;20112;-78
2021/08/02 06:12:23;;;;;;;82.72;75.10;;;15.70;99.90;;;;;;6191029;23;20391;-77
2021/08/02 06:14:49;;;;;;;43.85;39.17;;;15.90;99.90;;;;;;6212760;23;20311;-79
2021/08/02 06:17:15;;;;;;;142.85;129.00;;;15.90;99.90;;;;;;6223842;23;20044;-77
2021/08/02 06:19:43;;;;;;;118.28;106.43;;;15.90;99.90;;;;;;6162462;23;20143;-80
2021/08/02 06:22:11;;;;;;;128.75;115.28;;;16.00;99.90;;;;;;6223766;23;20009;-79
2021/08/02 06:24:38;;;;;;;130.65;117.60;;;16.30;99.90;;;;;;6196510;23;20551;-78
2021/08/02 06:27:04;;;;;;;97.07;86.93;;;16.40;99.90;;;;;;6186833;23;20004;-80
2021/08/02 06:29:34;;;;;;;65.35;59.33;;;16.40;99.90;;;;;;6187541;23;20104;-79
2021/08/02 06:32:00;;;;;;;195.45;176.02;;;16.50;99.90;;;;;;6161795;23;20032;-79
2021/08/02 06:34:33;;;;;;;121.82;109.20;;;16.40;99.90;;;;;;6187007;23;20092;-80
2021/08/02 06:37:00;;;;;;;177.45;158.27;;;16.50;99.90;;;;;;6197293;23;20088;-79
2021/08/02 06:39:26;;;;;;;141.38;126.25;;;16.60;99.90;;;;;;6212715;23;20012;-79
2021/08/02 06:41:52;;;;;;;174.70;149.43;;;16.70;99.90;;;;;;6197536;23;20016;-81
2021/08/02 06:44:19;;;;;;;220.13;196.77;;;16.80;99.90;;;;;;6186590;23;20215;-79
2021/08/02 06:46:46;;;;;;;210.57;183.40;;;16.80;99.90;;;;;;6160606;23;20009;-80
2021/08/02 06:49:12;;;;;;;212.85;183.52;;;16.80;99.90;;;;;;6186179;23;20020;-79
2021/08/02 06:51:38;;;;;;;163.73;143.15;;;16.90;99.90;;;;;;6213518;23;20020;-79
2021/08/02 06:54:06;;;;;;;291.05;261.95;;;17.00;99.90;;;;;;6196462;23;20013;-81
2021/08/02 06:56:32;;;;;;;228.60;202.90;;;16.90;99.90;;;;;;6223397;23;20027;-82
2021/08/02 06:58:58;;;;;;;126.15;112.45;;;16.80;99.90;;;;;;6212533;23;20487;-81
2021/08/02 07:01:24;;;;;;;141.48;127.35;;;16.90;99.90;;;;;;6223329;23;20458;-80
2021/08/02 07:03:50;;;;;;;183.27;163.20;;;17.10;99.90;;;;;;6196550;23;20071;-82
2021/08/02 07:06:15;;;;;;;93.32;83.53;;;17.20;99.90;;;;;;6213126;23;20027;-79
2021/08/02 07:08:41;;;;;;;189.77;169.15;;;17.10;99.90;;;;;;6222182;23;20009;-80
2021/08/02 07:11:07;;;;;;;164.45;146.65;;;17.10;99.90;;;;;;6213505;23;20020;-79
2021/08/02 07:13:34;;;;;;;206.02;185.70;;;17.10;99.90;;;;;;6212992;23;20031;-81
2021/08/02 07:16:00;;;;;;;157.40;141.55;;;16.90;99.90;;;;;;6196594;23;20017;-81
2021/08/02 07:18:35;;;;;;;209.93;189.75;;;16.80;99.90;;;;;;6161051;23;20071;-78
2021/08/02 07:21:01;;;;;;;;;;;16.70;99.90;;;;;;6196992;23;20012;-81
2021/08/02 07:23:27;;;;;;;133.70;121.32;;;16.70;99.90;;;;;;6185868;23;19962;-80
2021/08/02 07:25:53;;;;;;;263.05;218.23;;;16.60;99.90;;;;;;6212903;23;20332;-79
2021/08/02 07:28:19;;;;;;;140.30;125.93;;;16.90;99.90;;;;;;6222372;23;20008;-78
2021/08/02 07:30:45;;;;;;;163.10;146.13;;;17.00;99.90;;;;;;6186595;23;20013;-79
2021/08/02 07:33:10;;;;;;;270.55;223.75;;;17.00;99.90;;;;;;6213299;23;20435;-79
2021/08/02 07:35:36;;;;;;;234.38;202.98;;;17.20;99.90;;;;;;6212983;23;20130;-81
2021/08/02 07:38:03;;;;;;;237.32;210.95;;;17.20;99.90;;;;;;6185726;23;20356;-79
2021/08/02 07:40:29;;;;;;;246.60;205.75;;;17.40;99.90;;;;;;6222401;23;20088;-79
2021/08/02 07:42:54;;;;;;;187.70;158.98;;;17.50;99.90;;;;;;6219472;23;20317;-79
2021/08/02 07:45:20;;;;;;;214.68;185.57;;;17.70;99.90;;;;;;6186152;23;20020;-78
2021/08/02 07:47:46;;;;;;;120.13;108.00;;;17.80;99.90;;;;;;6213081;23;20012;-80
2021/08/02 07:50:12;;;;;;;128.27;115.88;;;17.90;99.90;;;;;;6223011;23;20323;-78
2021/08/02 07:52:39;;;;;;;129.48;114.35;;;17.90;99.90;;;;;;6222487;23;20407;-79
2021/08/02 07:55:05;;;;;;;161.43;141.25;;;17.70;99.90;;;;;;6185406;23;20005;-78
2021/08/02 07:57:32;;;;;;;261.42;214.43;;;17.70;99.90;;;;;;6186459;23;20020;-77
2021/08/02 08:00:02;;;;;;;205.07;165.68;;;17.80;99.90;;;;;;6195690;23;20071;-78
2021/08/02 08:02:28;;;;;;;141.70;119.72;;;17.60;99.90;;;;;;6223064;23;20087;-79
2021/08/02 08:04:53;;;;;;;139.00;125.50;;;17.50;99.90;;;;;;6195869;23;20059;-78
2021/08/02 08:07:19;;;;;;;243.07;202.32;;;17.50;99.90;;;;;;6213008;23;20009;-79
2021/08/02 08:09:45;;;;;;;124.28;111.00;;;17.50;99.90;;;;;;6185488;23;20012;-79
2021/08/02 08:12:10;;;;;;;244.57;203.20;;;17.60;99.90;;;;;;6191225;23;20135;-79
2021/08/02 08:14:36;;;;;;;230.50;201.60;;;17.70;99.90;;;;;;6186401;23;20400;-79
2021/08/02 08:17:02;;;;;;;256.80;219.27;;;18.00;99.90;;;;;;6195839;23;20463;-79
2021/08/02 08:19:28;;;;;;;220.75;179.48;;;18.10;99.90;;;;;;6211605;23;20040;-79
2021/08/02 08:21:54;;;;;;;214.02;190.63;;;18.10;99.90;;;;;;6222974;23;20016;-78
2021/08/02 08:24:19;;;;;;;174.70;157.48;;;17.90;99.90;;;;;;6221358;23;20336;-81
2021/08/02 08:26:45;;;;;;;268.50;225.63;;;18.00;99.90;;;;;;6222377;23;20036;-79
2021/08/02 08:29:11;;;;;;;284.20;227.57;;;17.90;99.90;;;;;;6214272;23;20059;-79
2021/08/02 08:31:37;;;;;;;285.63;234.00;;;18.10;99.90;;;;;;6195632;23;20013;-81
2021/08/02 08:34:03;;;;;;;147.57;132.13;;;18.30;99.90;;;;;;6187447;23;20012;-80
2021/08/02 08:36:29;;;;;;;276.63;226.45;;;18.40;99.90;;;;;;6214616;23;20013;-80
2021/08/02 08:38:55;;;;;;;187.68;161.52;;;18.30;99.90;;;;;;6186330;23;20124;-78
2021/08/02 08:41:21;;;;;;;305.85;243.70;;;18.30;99.90;;;;;;6214172;23;20092;-78
2021/08/02 08:43:51;;;;;;;118.10;105.63;;;18.40;99.90;;;;;;6192299;23;20020;-76
2021/08/02 08:46:19;;;;;;;242.30;199.55;;;18.20;99.90;;;;;;6224528;23;20075;-76
2021/08/02 08:48:46;;;;;;;169.05;151.68;;;18.10;99.90;;;;;;6197305;23;20497;-77
2021/08/02 08:51:12;;;;;;;146.25;123.18;;;18.10;99.90;;;;;;6214700;23;20016;-77
2021/08/02 08:53:40;;;;;;;262.35;213.95;;;17.90;99.90;;;;;;6186266;23;20028;-76
2021/08/02 08:56:06;;;;;;;199.50;164.07;;;17.80;99.90;;;;;;6186459;23;20337;-77
2021/08/02 08:58:32;;;;;;;239.95;197.23;;;17.70;99.90;;;;;;6213130;23;20512;-79
2021/08/02 09:01:00;;;;;;;200.57;176.63;;;17.60;99.90;;;;;;6196789;23;20044;-78
2021/08/02 09:03:27;;;;;;;206.38;182.73;;;17.30;99.90;;;;;;6186932;23;20012;-80
2021/08/02 09:06:04;;;;;;;173.65;155.00;;;17.40;99.90;;;;;;6186488;23;20013;-79
2021/08/02 09:08:30;;;;;;;230.05;197.15;;;17.50;99.90;;;;;;6185582;23;20017;-80
2021/08/02 09:11:01;;;;;;;171.23;151.57;;;17.40;99.90;;;;;;6224948;23;20150;-80
2021/08/02 09:13:32;;;;;;;90.38;80.85;;;17.40;99.90;;;;;;6192954;23;20068;-81
2021/08/02 09:15:58;;;;;;;161.07;135.00;;;17.50;99.90;;;;;;6224025;23;20016;-81
2021/08/02 09:18:24;;;;;;;195.88;167.35;;;17.60;99.90;;;;;;6195431;23;20024;-81
2021/08/02 09:21:01;;;;;;;249.52;209.82;;;17.80;99.90;;;;;;6196678;23;20084;-81
2021/08/02 09:23:27;;;;;;;223.40;182.00;;;18.20;99.90;;;;;;6195515;23;20317;-81
2021/08/02 09:25:55;;;;;;;232.75;187.15;;;18.30;99.90;;;;;;6197161;23;20341;-81
2021/08/02 09:28:24;;;;;;;209.98;176.55;;;18.30;99.90;;;;;;6194054;23;20019;-81
2021/08/02 09:31:01;;;;;;;163.75;140.25;;;18.30;99.90;;;;;;6197040;23;20259;-81
2021/08/02 09:33:41;;;;;;;197.23;172.57;;;18.40;99.90;;;;;;6196302;23;20012;-81
2021/08/02 09:36:07;;;;;;;211.77;177.05;;;18.50;99.90;;;;;;6186700;23;20021;-81
2021/08/02 09:38:32;;;;;;;234.40;193.65;;;18.30;99.90;;;;;;6195891;23;20024;-81
2021/08/02 09:40:59;;;;;;;161.13;142.90;;;18.20;99.90;;;;;;6213517;23;20020;-81
2021/08/02 09:43:30;;;;;;;171.38;147.90;;;18.40;99.90;;;;;;6186369;23;20012;-80
2021/08/02 09:45:59;;;;;;;226.73;189.30;;;18.50;99.90;;;;;;6196668;23;20043;-79
2021/08/02 09:48:36;;;;;;;188.18;167.45;;;18.60;99.90;;;;;;6213726;23;20039;-78
2021/08/02 09:51:21;;;;;;;201.45;172.18;;;18.70;99.90;;;;;;6187519;23;20024;-78
2021/08/02 09:53:52;;;;;;;179.73;154.20;;;18.90;99.90;;;;;;6222700;23;20016;-78
2021/08/02 09:56:19;;;;;;;214.60;181.57;;;18.50;99.90;;;;;;6186920;23;20021;-78
2021/08/02 09:58:46;;;;;;;189.43;169.20;;;18.30;99.90;;;;;;6219403;23;20017;-78
2021/08/02 10:01:13;;;;;;;222.68;186.40;;;18.30;99.90;;;;;;6224298;23;20015;-78
2021/08/02 10:03:40;;;;;;;180.15;157.63;;;18.40;99.90;;;;;;6197375;23;20307;-78
2021/08/02 10:06:06;;;;;;;171.70;152.98;;;18.40;99.90;;;;;;6186810;23;20044;-78
2021/08/02 10:08:36;;;;;;;149.93;130.23;;;18.40;99.90;;;;;;6196031;23;20024;-77
2021/08/02 10:11:04;;;;;;;205.00;174.52;;;18.40;99.90;;;;;;6213257;23;20074;-78
2021/08/02 10:13:40;;;;;;;281.15;201.45;;;18.40;99.90;;;;;;6213006;23;20037;-78
2021/08/02 10:16:10;;;;;;;277.33;219.30;;;18.10;99.90;;;;;;6224106;23;20027;-78
2021/08/02 10:18:38;;;;;;;186.65;158.25;;;18.10;99.90;;;;;;6186808;23;20031;-78
2021/08/02 10:21:11;;;;;;;200.52;170.95;;;17.90;99.90;;;;;;6186810;23;20017;-78
2021/08/02 10:23:38;;;;;;;188.17;160.00;;;17.80;99.90;;;;;;6186099;23;20039;-78
2021/08/02 10:26:26;;;;;;;133.48;114.50;;;17.80;99.90;;;;;;6187536;23;20080;-78
2021/08/02 10:29:31;;;;;;;156.32;128.80;;;17.80;99.90;;;;;;6196896;23;20039;-77
2021/08/02 10:31:58;;;;;;;205.07;182.60;;;17.70;99.90;;;;;;6213322;23;20013;-80
2021/08/02 10:34:25;;;;;;;211.60;179.95;;;17.70;99.90;;;;;;6222949;23;20013;-75
2021/08/02 10:37:01;;;;;;;230.25;188.23;;;18.00;99.90;;;;;;6186539;23;20024;-76
2021/08/02 10:39:29;;;;;;;224.13;192.57;;;18.30;99.90;;;;;;6221932;23;20142;-76
2021/08/02 10:42:07;;;;;;;206.50;174.00;;;18.30;99.90;;;;;;6196508;23;20023;-77
2021/08/02 10:44:32;;;;;;;145.15;129.70;;;18.50;99.90;;;;;;6189420;23;20012;-75
2021/08/02 10:47:03;;;;;;;186.27;155.60;;;18.50;99.90;;;;;;6223327;23;20066;-76
2021/08/02 10:49:29;;;;;;;133.45;119.72;;;18.60;99.90;;;;;;6184764;23;20444;-78
2021/08/02 10:51:55;;;;;;;180.15;158.50;;;18.80;99.90;;;;;;6213815;23;20058;-80
2021/08/02 10:54:22;;;;;;;246.30;197.18;;;18.90;99.90;;;;;;6221774;23;20012;-77
2021/08/02 10:56:48;;;;;;;153.63;136.68;;;19.00;99.90;;;;;;6223597;23;20019;-76
2021/08/02 10:59:21;;;;;;;174.20;150.52;;;19.30;99.90;;;;;;6212843;23;20062;-76
2021/08/02 11:01:52;;;;;;;159.15;138.88;;;19.10;99.90;;;;;;6222729;23;20043;-76
2021/08/02 11:04:21;;;;;;;223.35;184.30;;;19.00;99.90;;;;;;6222498;23;20012;-76
2021/08/02 11:06:53;;;;;;;140.70;122.10;;;18.90;99.90;;;;;;6218639;23;20119;-76
2021/08/02 11:09:33;;;;;;;186.48;156.88;;;19.00;99.90;;;;;;6211797;23;20024;-76
2021/08/02 11:12:03;;;;;;;247.18;204.68;;;19.20;99.90;;;;;;6221759;23;20016;-75
2021/08/02 11:14:30;;;;;;;185.88;160.10;;;19.30;99.90;;;;;;6216387;23;20112;-80
2021/08/02 11:16:56;;;;;;;197.25;167.32;;;19.60;99.90;;;;;;6222803;23;20012;-76
2021/08/02 11:19:30;;;;;;;224.82;187.98;;;19.80;99.90;;;;;;6196316;23;20028;-74
2021/08/02 11:21:55;;;;;;;153.15;136.15;;;20.00;99.90;;;;;;6185565;23;20020;-75
2021/08/02 11:24:21;;;;;;;139.18;123.70;;;20.30;99.90;;;;;;6221289;23;20079;-76
2021/08/02 11:26:53;;;;;;;206.43;174.05;;;20.50;99.90;;;;;;6161224;23;20527;-76
2021/08/02 11:29:36;;;;;;;178.85;148.30;;;20.50;99.90;;;;;;6216846;23;20008;-76
2021/08/02 11:32:06;;;;;;;167.98;144.63;;;20.60;99.90;;;;;;6222373;23;20024;-75
2021/08/02 11:34:33;;;;;;;189.07;157.15;;;20.80;99.90;;;;;;6185183;23;20021;-76
2021/08/02 11:37:13;;;;;;;238.63;203.82;;;20.80;99.90;;;;;;6186070;23;20016;-76
2021/08/02 11:39:44;;;;;;;186.45;162.02;;;20.40;99.90;;;;;;6184023;23;20016;-75
2021/08/02 11:42:12;;;;;;;170.50;141.30;;;20.70;99.90;;;;;;6222256;23;20020;-76
2021/08/02 11:44:43;;;;;;;159.60;133.85;;;20.90;99.90;;;;;;6215032;23;20017;-76
2021/08/02 11:47:17;;;;;;;211.45;170.90;;;21.30;99.90;;;;;;6222284;23;20063;-76
2021/08/02 11:49:44;;;;;;;195.65;165.02;;;21.50;99.90;;;;;;6185242;23;20012;-76
2021/08/02 11:52:13;;;;;;;284.88;227.05;;;21.30;99.90;;;;;;6222227;23;20016;-76
2021/08/02 11:54:39;;;;;;;263.85;216.80;;;21.50;99.90;;;;;;6221264;23;20013;-76
2021/08/02 11:57:21;;;;;;;320.63;230.05;;;21.60;99.90;;;;;;6222647;23;20009;-76
2021/08/02 11:59:59;;;;;;;229.45;190.57;;;21.10;99.90;;;;;;6184074;23;20013;-75
2021/08/02 12:02:45;;;;;;;278.55;222.55;;;21.20;99.90;;;;;;6222135;23;20039;-76
2021/08/02 12:05:28;;;;;;;259.67;225.40;;;21.00;99.90;;;;;;6211873;23;20322;-75
2021/08/02 12:07:56;;;;;;;276.38;226.95;;;21.00;99.90;;;;;;6214152;23;20027;-76
2021/08/02 12:10:23;;;;;;;188.32;154.68;;;21.00;99.90;;;;;;6212970;23;20488;-76
2021/08/02 12:13:03;;;;;;;240.43;196.23;;;20.70;99.90;;;;;;6219150;23;20016;-75
2021/08/02 12:15:30;;;;;;;189.27;153.63;;;20.50;99.90;;;;;;6213540;23;20044;-75
2021/08/02 12:17:57;;;;;;;224.32;187.10;;;20.50;99.90;;;;;;6223916;23;20023;-76
2021/08/02 12:20:38;;;;;;;253.23;209.02;;;20.70;99.90;;;;;;6186668;23;20017;-75
2021/08/02 12:23:08;;;;;;;153.57;112.28;;;20.50;99.90;;;;;;6213479;23;20013;-75
2021/08/02 12:25:46;;;;;;;198.02;176.05;;;20.10;99.90;;;;;;6213462;23;20008;-75
2021/08/02 12:28:13;;;;;;;203.82;170.00;;;20.10;99.90;;;;;;6213156;23;20016;-75